Kamikita Maru — JD4176 — position and weather

sailwx.info

Track history (hours):
 
Tides and Currents Weather Stations Pressure Air Temp Water Temp Dewpoint Dewpoint Depression Visibility Wind Speed Wind Dir Waves Ship Positions

Kamikita Maru

Last reported at 2018-Jun-18 12:09 UTC. Time now 2018-Jun-21 06:32 UTC.
Position N 35°04' E 139°43'.

Length 170 m; draft 6.7 m.

Type: Cargo ship. MMSI: 431009595.

Date/timePositionNaut miles runAvg speedWind from/ knotsBaromVisibWave heightAir tempDewpointWater temp
2018-Jun-18 12:09N 35°04' E 139°43'418.4
2018-Jun-18 11:57N 35°08' E 139°44'614.8
2018-Jun-18 11:30N 35°14' E 139°46'611.0
2018-Jun-18 11:00N 35°19' E 139°43'713.3
2018-Jun-18 10:30N 35°26' E 139°45'816.9
2018-Jun-18 10:00N 35°32' E 139°51'713.3
2018-Jun-18 09:30N 35°38' E 139°46'0 0.0
2018-Jun-18 04:17N 35°38' E 139°46'1 3.0
2018-Jun-18 04:00N 35°37' E 139°46'510.0
2018-Jun-18 03:30N 35°34' E 139°50'713.6
2018-Jun-18 03:00N 35°27' E 139°49'714.0
2018-Jun-18 02:30N 35°21' E 139°45'611.7
2018-Jun-18 02:00N 35°15' E 139°47'814.0
2018-Jun-18 01:27N 35°07' E 139°46'24218.3
2018-Jun-17 12:11N 33°38' E 135°13'419.9
2018-Jun-17 12:00N 33°41' E 135°10'1019.9
2018-Jun-17 11:30N 33°48' E 135°02'918.6
2018-Jun-17 11:01N 33°57' E 134°58'1020.1
2018-Jun-17 10:31N 34°07' E 134°58'1121.4
2018-Jun-17 10:00N 34°17' E 134°59'1019.7
2018-Jun-17 09:30N 34°26' E 135°05'1121.1
2018-Jun-17 09:00N 34°32' E 135°15'816.1
2018-Jun-17 08:29N 34°36' E 135°24'1 1.2
2018-Jun-17 08:00N 34°37' E 135°25'0 0.0
2018-Jun-17 07:31N 34°37' E 135°25'0 0.0
2018-Jun-17 06:58N 34°37' E 135°25'0 0.0
2018-Jun-17 06:28N 34°37' E 135°25'0 0.0
2018-Jun-17 05:58N 34°37' E 135°25'0 0.0
2018-Jun-17 05:28N 34°37' E 135°25'0 0.0
2018-Jun-17 04:55N 34°37' E 135°25'0 0.0
2018-Jun-17 04:28N 34°37' E 135°25'0 0.0
2018-Jun-17 03:49N 34°37' E 135°25'0 0.0
2018-Jun-17 03:28N 34°37' E 135°25'0 0.0
2018-Jun-17 02:55N 34°37' E 135°25'0 0.1
2018-Jun-17 02:25N 34°37' E 135°25'0 0.1
2018-Jun-17 01:58N 34°37' E 135°25'0 0.0
2018-Jun-17 01:28N 34°37' E 135°25'0 0.0
2018-Jun-17 00:55N 34°37' E 135°25'0 0.0
2018-Jun-17 00:23N 34°37' E 135°25'0 0.1
2018-Jun-17 00:00N 34°37' E 135°25'3 5.4
2018-Jun-16 23:30N 34°36' E 135°22'816.7
2018-Jun-16 23:00N 34°31' E 135°14'918.2
2018-Jun-16 22:30N 34°25' E 135°06'917.9
2018-Jun-16 22:00N 34°18' E 134°59'917.8
2018-Jun-16 21:30N 34°09' E 134°59'1019.7
2018-Jun-16 21:00N 33°59' E 134°59'1019.2
2018-Jun-16 20:30N 33°49' E 135°01'918.9
2018-Jun-16 20:00N 33°43' E 135°09'23917.1
2018-Jun-16 05:59N 35°06' E 139°41'816.7
2018-Jun-16 05:30N 35°13' E 139°46'612.2
2018-Jun-16 05:01N 35°19' E 139°43'713.8
2018-Jun-16 04:30N 35°25' E 139°44'917.3
2018-Jun-16 04:00N 35°32' E 139°51'713.8
2018-Jun-16 03:30N 35°38' E 139°46'0 0.4
2018-Jun-16 02:36N 35°38' E 139°46'0 0.0
2018-Jun-16 01:53N 35°38' E 139°46'0 0.0
2018-Jun-15 21:44N 35°38' E 139°46'1 3.2
2018-Jun-15 21:29N 35°37' E 139°46'5 9.3
2018-Jun-15 21:00N 35°34' E 139°49'612.2
2018-Jun-15 20:30N 35°28' E 139°51'713.8
2018-Jun-15 20:00N 35°22' E 139°45'611.8
2018-Jun-15 19:30N 35°16' E 139°46'613.0
2018-Jun-15 19:00N 35°10' E 139°47'  
2018-Jun-09 12:21N 35°06' E 139°44'617.0
2018-Jun-09 12:00N 35°12' E 139°46'612.6
2018-Jun-09 11:30N 35°18' E 139°44'713.7
2018-Jun-09 11:00N 35°25' E 139°43'918.3
2018-Jun-09 10:30N 35°31' E 139°51'814.5
2018-Jun-09 09:58N 35°37' E 139°46'1 0.1
2018-Jun-09 04:48N 35°38' E 139°46'1 3.2
2018-Jun-09 04:29N 35°37' E 139°46'5 9.9
2018-Jun-09 04:00N 35°34' E 139°50'713.2
2018-Jun-09 03:30N 35°27' E 139°49'714.0
2018-Jun-09 03:00N 35°21' E 139°45'611.8
2018-Jun-09 02:30N 35°15' E 139°47'713.9
2018-Jun-09 02:00N 35°08' E 139°46'24218.1
2018-Jun-08 12:35N 33°41' E 135°12'221.4
2018-Jun-08 12:31N 33°42' E 135°10'  
Track history (hours):
 
Tides and Currents Weather Stations Pressure Air Temp Water Temp Dewpoint Dewpoint Depression Visibility Wind Speed Wind Dir Waves Ship Positions

Kamikita Maru

Last reported at 2018-Jun-18 12:09 UTC. Time now 2018-Jun-21 06:32 UTC.
Position N 35°04' E 139°43'.

Length 170 m; draft 6.7 m.

Type: Cargo ship. MMSI: 431009595.

Date/timePositionNaut miles runAvg speedWind from/ knotsBaromVisibWave heightAir tempDewpointWater temp
2018-Jun-18 12:09N 35°04' E 139°43'418.4
2018-Jun-18 11:57N 35°08' E 139°44'614.8
2018-Jun-18 11:30N 35°14' E 139°46'611.0
2018-Jun-18 11:00N 35°19' E 139°43'713.3
2018-Jun-18 10:30N 35°26' E 139°45'816.9
2018-Jun-18 10:00N 35°32' E 139°51'713.3
2018-Jun-18 09:30N 35°38' E 139°46'0 0.0
2018-Jun-18 04:17N 35°38' E 139°46'1 3.0
2018-Jun-18 04:00N 35°37' E 139°46'510.0
2018-Jun-18 03:30N 35°34' E 139°50'713.6
2018-Jun-18 03:00N 35°27' E 139°49'714.0
2018-Jun-18 02:30N 35°21' E 139°45'611.7
2018-Jun-18 02:00N 35°15' E 139°47'814.0
2018-Jun-18 01:27N 35°07' E 139°46'24218.3
2018-Jun-17 12:11N 33°38' E 135°13'419.9
2018-Jun-17 12:00N 33°41' E 135°10'1019.9
2018-Jun-17 11:30N 33°48' E 135°02'918.6
2018-Jun-17 11:01N 33°57' E 134°58'1020.1
2018-Jun-17 10:31N 34°07' E 134°58'1121.4
2018-Jun-17 10:00N 34°17' E 134°59'1019.7
2018-Jun-17 09:30N 34°26' E 135°05'1121.1
2018-Jun-17 09:00N 34°32' E 135°15'816.1
2018-Jun-17 08:29N 34°36' E 135°24'1 1.2
2018-Jun-17 08:00N 34°37' E 135°25'0 0.0
2018-Jun-17 07:31N 34°37' E 135°25'0 0.0
2018-Jun-17 06:58N 34°37' E 135°25'0 0.0
2018-Jun-17 06:28N 34°37' E 135°25'0 0.0
2018-Jun-17 05:58N 34°37' E 135°25'0 0.0
2018-Jun-17 05:28N 34°37' E 135°25'0 0.0
2018-Jun-17 04:55N 34°37' E 135°25'0 0.0
2018-Jun-17 04:28N 34°37' E 135°25'0 0.0
2018-Jun-17 03:49N 34°37' E 135°25'0 0.0
2018-Jun-17 03:28N 34°37' E 135°25'0 0.0
2018-Jun-17 02:55N 34°37' E 135°25'0 0.1
2018-Jun-17 02:25N 34°37' E 135°25'0 0.1
2018-Jun-17 01:58N 34°37' E 135°25'0 0.0
2018-Jun-17 01:28N 34°37' E 135°25'0 0.0
2018-Jun-17 00:55N 34°37' E 135°25'0 0.0
2018-Jun-17 00:23N 34°37' E 135°25'0 0.1
2018-Jun-17 00:00N 34°37' E 135°25'3 5.4
2018-Jun-16 23:30N 34°36' E 135°22'816.7
2018-Jun-16 23:00N 34°31' E 135°14'918.2
2018-Jun-16 22:30N 34°25' E 135°06'917.9
2018-Jun-16 22:00N 34°18' E 134°59'917.8
2018-Jun-16 21:30N 34°09' E 134°59'1019.7
2018-Jun-16 21:00N 33°59' E 134°59'1019.2
2018-Jun-16 20:30N 33°49' E 135°01'918.9
2018-Jun-16 20:00N 33°43' E 135°09'23917.1
2018-Jun-16 05:59N 35°06' E 139°41'816.7
2018-Jun-16 05:30N 35°13' E 139°46'612.2
2018-Jun-16 05:01N 35°19' E 139°43'713.8
2018-Jun-16 04:30N 35°25' E 139°44'917.3
2018-Jun-16 04:00N 35°32' E 139°51'713.8
2018-Jun-16 03:30N 35°38' E 139°46'0 0.4
2018-Jun-16 02:36N 35°38' E 139°46'0 0.0
2018-Jun-16 01:53N 35°38' E 139°46'0 0.0
2018-Jun-15 21:44N 35°38' E 139°46'1 3.2
2018-Jun-15 21:29N 35°37' E 139°46'5 9.3
2018-Jun-15 21:00N 35°34' E 139°49'612.2
2018-Jun-15 20:30N 35°28' E 139°51'713.8
2018-Jun-15 20:00N 35°22' E 139°45'611.8
2018-Jun-15 19:30N 35°16' E 139°46'613.0
2018-Jun-15 19:00N 35°10' E 139°47'  
2018-Jun-09 12:21N 35°06' E 139°44'617.0
2018-Jun-09 12:00N 35°12' E 139°46'612.6
2018-Jun-09 11:30N 35°18' E 139°44'713.7
2018-Jun-09 11:00N 35°25' E 139°43'918.3
2018-Jun-09 10:30N 35°31' E 139°51'814.5
2018-Jun-09 09:58N 35°37' E 139°46'1 0.1
2018-Jun-09 04:48N 35°38' E 139°46'1 3.2
2018-Jun-09 04:29N 35°37' E 139°46'5 9.9
2018-Jun-09 04:00N 35°34' E 139°50'713.2
2018-Jun-09 03:30N 35°27' E 139°49'714.0
2018-Jun-09 03:00N 35°21' E 139°45'611.8
2018-Jun-09 02:30N 35°15' E 139°47'713.9
2018-Jun-09 02:00N 35°08' E 139°46'24218.1
2018-Jun-08 12:35N 33°41' E 135°12'221.4
2018-Jun-08 12:31N 33°42' E 135°10'  

Dump ship's entire track history